Terminal Aerodrome Forecast
Issued by NWS

Home | Current Version | Previous Version | Text Only | Print | Product List | Glossary On
Versions: 1 2 3 4 5 6 7 8 9 10 11 12 13 14 15 16 17 18
000
FTUS44 KSJT 011700
TAFBBD
TAF
KBBD 011721Z 0118/0218 32016KT P6SM BKN011
     FM012000 34016G21KT P6SM BKN025
     FM012100 34014G21KT P6SM BKN040
     FM020000 35011KT P6SM SCT050=

USA.gov is the U.S. government's official web portal to all federal, state and local government web resources and services.